sensor_id;sensor_type;location;lat;lon;timestamp;pressure;altitude;pressure_sealevel;temperature;humidity
5380;BME280;2713;42.680;23.310;2023-02-21T00:00:07;95467.25;;;8.60;55.57
5380;BME280;2713;42.680;23.310;2023-02-21T00:02:51;95470.59;;;8.19;57.10
5380;BME280;2713;42.680;23.310;2023-02-21T00:05:35;95463.31;;;8.14;56.90
5380;BME280;2713;42.680;23.310;2023-02-21T00:08:21;95472.31;;;8.28;57.32
5380;BME280;2713;42.680;23.310;2023-02-21T00:11:05;95466.56;;;8.42;56.42
5380;BME280;2713;42.680;23.310;2023-02-21T00:13:50;95459.75;;;8.49;56.17
5380;BME280;2713;42.680;23.310;2023-02-21T00:16:34;95463.41;;;8.73;55.38
5380;BME280;2713;42.680;23.310;2023-02-21T00:19:18;95472.19;;;8.88;54.72
5380;BME280;2713;42.680;23.310;2023-02-21T00:22:02;95459.56;;;8.85;55.08
5380;BME280;2713;42.680;23.310;2023-02-21T00:24:48;95461.97;;;8.36;56.77
5380;BME280;2713;42.680;23.310;2023-02-21T00:27:33;95459.88;;;8.06;56.99
5380;BME280;2713;42.680;23.310;2023-02-21T00:30:17;95463.97;;;8.42;56.63
5380;BME280;2713;42.680;23.310;2023-02-21T00:33:01;95448.31;;;8.26;57.13
5380;BME280;2713;42.680;23.310;2023-02-21T00:35:45;95455.06;;;8.11;57.48
5380;BME280;2713;42.680;23.310;2023-02-21T00:38:29;95447.00;;;8.22;57.12
5380;BME280;2713;42.680;23.310;2023-02-21T00:41:16;95452.00;;;8.49;56.68
5380;BME280;2713;42.680;23.310;2023-02-21T00:44:00;95455.63;;;8.64;55.78
5380;BME280;2713;42.680;23.310;2023-02-21T00:46:44;95457.72;;;8.61;56.00
5380;BME280;2713;42.680;23.310;2023-02-21T00:49:28;95445.59;;;8.78;55.30
5380;BME280;2713;42.680;23.310;2023-02-21T00:52:12;95443.19;;;8.84;55.19
5380;BME280;2713;42.680;23.310;2023-02-21T00:54:57;95436.31;;;8.17;57.31
5380;BME280;2713;42.680;23.310;2023-02-21T00:57:42;95428.84;;;8.14;57.44
5380;BME280;2713;42.680;23.310;2023-02-21T01:00:27;95420.91;;;8.41;56.40
5380;BME280;2713;42.680;23.310;2023-02-21T01:03:11;95424.53;;;8.81;55.52
5380;BME280;2713;42.680;23.310;2023-02-21T01:05:55;95410.09;;;8.70;55.39
5380;BME280;2713;42.680;23.310;2023-02-21T01:08:41;95407.06;;;8.83;55.60
5380;BME280;2713;42.680;23.310;2023-02-21T01:11:25;95405.38;;;8.57;55.91
5380;BME280;2713;42.680;23.310;2023-02-21T01:14:11;95400.25;;;8.82;55.61
5380;BME280;2713;42.680;23.310;2023-02-21T01:16:55;95399.59;;;8.72;54.99
5380;BME280;2713;42.680;23.310;2023-02-21T01:19:40;95396.38;;;8.86;55.33
5380;BME280;2713;42.680;23.310;2023-02-21T01:22:24;95387.31;;;8.90;55.13
5380;BME280;2713;42.680;23.310;2023-02-21T01:25:09;95386.28;;;8.66;55.75
5380;BME280;2713;42.680;23.310;2023-02-21T01:27:53;95388.88;;;8.58;55.97
5380;BME280;2713;42.680;23.310;2023-02-21T01:30:39;95370.25;;;8.63;55.43
5380;BME280;2713;42.680;23.310;2023-02-21T01:33:23;95385.50;;;8.66;55.27
5380;BME280;2713;42.680;23.310;2023-02-21T01:36:08;95382.03;;;8.41;56.63
5380;BME280;2713;42.680;23.310;2023-02-21T01:38:53;95378.28;;;8.36;56.54
5380;BME280;2713;42.680;23.310;2023-02-21T01:41:38;95386.75;;;8.04;57.44
5380;BME280;2713;42.680;23.310;2023-02-21T01:44:35;95386.78;;;8.20;56.80
5380;BME280;2713;42.680;23.310;2023-02-21T01:47:20;95377.84;;;8.48;56.55
5380;BME280;2713;42.680;23.310;2023-02-21T01:50:13;95369.16;;;8.65;56.21
5380;BME280;2713;42.680;23.310;2023-02-21T01:53:00;95371.06;;;8.63;55.75
5380;BME280;2713;42.680;23.310;2023-02-21T01:55:45;95366.56;;;8.65;55.38
5380;BME280;2713;42.680;23.310;2023-02-21T01:58:31;95364.44;;;8.61;56.17
5380;BME280;2713;42.680;23.310;2023-02-21T02:01:22;95355.69;;;8.62;55.92
5380;BME280;2713;42.680;23.310;2023-02-21T02:04:09;95356.34;;;8.80;55.24
5380;BME280;2713;42.680;23.310;2023-02-21T02:06:54;95364.69;;;8.34;56.70
5380;BME280;2713;42.680;23.310;2023-02-21T02:09:38;95331.53;;;8.37;56.43
5380;BME280;2713;42.680;23.310;2023-02-21T02:12:36;95346.78;;;8.64;55.95
5380;BME280;2713;42.680;23.310;2023-02-21T02:15:19;95336.91;;;8.84;55.11
5380;BME280;2713;42.680;23.310;2023-02-21T02:18:01;95335.13;;;8.69;55.73
5380;BME280;2713;42.680;23.310;2023-02-21T02:20:56;95341.13;;;8.69;55.92
5380;BME280;2713;42.680;23.310;2023-02-21T02:23:38;95338.50;;;8.45;56.48
5380;BME280;2713;42.680;23.310;2023-02-21T02:26:48;95338.34;;;8.38;55.63
5380;BME280;2713;42.680;23.310;2023-02-21T02:29:36;95332.38;;;8.46;55.88
5380;BME280;2713;42.680;23.310;2023-02-21T02:32:22;95329.56;;;8.39;55.67
5380;BME280;2713;42.680;23.310;2023-02-21T02:34:59;95320.69;;;8.50;55.59
5380;BME280;2713;42.680;23.310;2023-02-21T02:37:32;95324.09;;;8.66;55.54
5380;BME280;2713;42.680;23.310;2023-02-21T02:40:07;95325.59;;;8.69;55.38
5380;BME280;2713;42.680;23.310;2023-02-21T02:42:47;95332.56;;;8.77;54.92
5380;BME280;2713;42.680;23.310;2023-02-21T02:45:25;95322.34;;;8.91;54.35
5380;BME280;2713;42.680;23.310;2023-02-21T02:47:58;95311.50;;;8.96;53.92
5380;BME280;2713;42.680;23.310;2023-02-21T02:50:30;95326.69;;;9.15;53.58
5380;BME280;2713;42.680;23.310;2023-02-21T02:53:02;95320.38;;;9.18;53.37
5380;BME280;2713;42.680;23.310;2023-02-21T02:55:37;95319.09;;;9.05;54.19
5380;BME280;2713;42.680;23.310;2023-02-21T02:58:08;95323.28;;;9.23;53.32
5380;BME280;2713;42.680;23.310;2023-02-21T03:00:39;95319.25;;;9.20;53.35
5380;BME280;2713;42.680;23.310;2023-02-21T03:03:33;95322.66;;;9.21;53.14
5380;BME280;2713;42.680;23.310;2023-02-21T03:06:15;95318.28;;;9.21;53.26
5380;BME280;2713;42.680;23.310;2023-02-21T03:08:51;95323.47;;;9.21;53.70
5380;BME280;2713;42.680;23.310;2023-02-21T03:11:24;95316.16;;;9.08;53.79
5380;BME280;2713;42.680;23.310;2023-02-21T03:13:55;95329.47;;;9.05;53.84
5380;BME280;2713;42.680;23.310;2023-02-21T03:16:25;95326.41;;;8.70;54.72
5380;BME280;2713;42.680;23.310;2023-02-21T03:18:58;95326.38;;;8.94;55.05
5380;BME280;2713;42.680;23.310;2023-02-21T03:21:31;95311.78;;;9.01;54.06
5380;BME280;2713;42.680;23.310;2023-02-21T03:24:02;95321.34;;;9.08;53.85
5380;BME280;2713;42.680;23.310;2023-02-21T03:26:33;95306.94;;;8.98;54.29
5380;BME280;2713;42.680;23.310;2023-02-21T03:29:18;95314.09;;;8.80;54.77
5380;BME280;2713;42.680;23.310;2023-02-21T03:32:02;95316.66;;;8.96;54.72
5380;BME280;2713;42.680;23.310;2023-02-21T03:34:35;95307.91;;;8.64;55.17
5380;BME280;2713;42.680;23.310;2023-02-21T03:37:09;95296.25;;;8.52;55.41
5380;BME280;2713;42.680;23.310;2023-02-21T03:39:37;95307.09;;;8.64;55.05
5380;BME280;2713;42.680;23.310;2023-02-21T03:42:04;95305.16;;;8.74;55.07
5380;BME280;2713;42.680;23.310;2023-02-21T03:44:32;95298.38;;;8.73;54.56
5380;BME280;2713;42.680;23.310;2023-02-21T03:47:09;95314.69;;;8.33;55.92
5380;BME280;2713;42.680;23.310;2023-02-21T03:49:39;95298.84;;;8.60;54.94
5380;BME280;2713;42.680;23.310;2023-02-21T03:52:10;95316.31;;;8.66;54.81
5380;BME280;2713;42.680;23.310;2023-02-21T03:54:39;95329.28;;;8.42;55.19
5380;BME280;2713;42.680;23.310;2023-02-21T03:57:08;95320.19;;;8.46;55.62
5380;BME280;2713;42.680;23.310;2023-02-21T03:59:42;95325.38;;;8.46;55.78
5380;BME280;2713;42.680;23.310;2023-02-21T04:02:09;95326.34;;;8.53;54.92
5380;BME280;2713;42.680;23.310;2023-02-21T04:04:37;95331.38;;;8.63;55.35
5380;BME280;2713;42.680;23.310;2023-02-21T04:07:09;95326.22;;;8.55;55.82
5380;BME280;2713;42.680;23.310;2023-02-21T04:09:38;95322.00;;;8.46;55.63
5380;BME280;2713;42.680;23.310;2023-02-21T04:12:07;95322.31;;;8.51;55.52
5380;BME280;2713;42.680;23.310;2023-02-21T04:14:36;95333.50;;;8.68;55.05
5380;BME280;2713;42.680;23.310;2023-02-21T04:17:04;95335.44;;;8.74;54.86
5380;BME280;2713;42.680;23.310;2023-02-21T04:19:32;95330.22;;;8.33;55.52
5380;BME280;2713;42.680;23.310;2023-02-21T04:22:01;95340.59;;;8.41;55.69
5380;BME280;2713;42.680;23.310;2023-02-21T04:24:32;95342.09;;;8.68;55.07
5380;BME280;2713;42.680;23.310;2023-02-21T04:27:00;95336.88;;;7.94;56.87
5380;BME280;2713;42.680;23.310;2023-02-21T04:29:29;95346.88;;;7.89;57.67
5380;BME280;2713;42.680;23.310;2023-02-21T04:31:56;95353.44;;;8.17;56.88
5380;BME280;2713;42.680;23.310;2023-02-21T04:34:23;95353.31;;;8.27;56.22
5380;BME280;2713;42.680;23.310;2023-02-21T04:36:51;95367.50;;;8.48;55.94
5380;BME280;2713;42.680;23.310;2023-02-21T04:39:19;95355.66;;;8.54;55.03
5380;BME280;2713;42.680;23.310;2023-02-21T04:41:49;95355.03;;;8.52;55.42
5380;BME280;2713;42.680;23.310;2023-02-21T04:44:16;95376.63;;;8.77;54.56
5380;BME280;2713;42.680;23.310;2023-02-21T04:46:43;95353.59;;;8.65;55.07
5380;BME280;2713;42.680;23.310;2023-02-21T04:49:11;95339.00;;;8.56;55.14
5380;BME280;2713;42.680;23.310;2023-02-21T04:51:38;95357.78;;;8.58;55.20
5380;BME280;2713;42.680;23.310;2023-02-21T04:54:05;95359.59;;;8.66;55.66
5380;BME280;2713;42.680;23.310;2023-02-21T04:56:32;95339.47;;;8.60;55.06
5380;BME280;2713;42.680;23.310;2023-02-21T04:59:00;95347.28;;;8.68;55.07
5380;BME280;2713;42.680;23.310;2023-02-21T05:01:28;95325.88;;;8.58;55.48
5380;BME280;2713;42.680;23.310;2023-02-21T05:03:56;95337.22;;;8.65;55.23
5380;BME280;2713;42.680;23.310;2023-02-21T05:06:24;95318.31;;;8.73;54.65
5380;BME280;2713;42.680;23.310;2023-02-21T05:08:51;95328.47;;;8.74;55.27
5380;BME280;2713;42.680;23.310;2023-02-21T05:11:19;95332.69;;;8.51;55.69
5380;BME280;2713;42.680;23.310;2023-02-21T05:13:46;95317.28;;;8.41;55.70
5380;BME280;2713;42.680;23.310;2023-02-21T05:16:15;95326.69;;;8.50;55.53
5380;BME280;2713;42.680;23.310;2023-02-21T05:18:43;95325.56;;;8.61;54.87
5380;BME280;2713;42.680;23.310;2023-02-21T05:21:10;95310.09;;;8.27;56.49
5380;BME280;2713;42.680;23.310;2023-02-21T05:23:40;95315.00;;;8.46;55.81
5380;BME280;2713;42.680;23.310;2023-02-21T05:26:09;95299.97;;;8.50;56.01
5380;BME280;2713;42.680;23.310;2023-02-21T05:28:37;95312.47;;;8.62;55.67
5380;BME280;2713;42.680;23.310;2023-02-21T05:31:04;95311.81;;;8.52;55.57
5380;BME280;2713;42.680;23.310;2023-02-21T05:33:33;95312.44;;;8.46;55.21
5380;BME280;2713;42.680;23.310;2023-02-21T05:36:00;95306.81;;;8.01;57.31
5380;BME280;2713;42.680;23.310;2023-02-21T05:38:26;95319.00;;;8.25;56.54
5380;BME280;2713;42.680;23.310;2023-02-21T05:40:53;95323.34;;;8.08;56.80
5380;BME280;2713;42.680;23.310;2023-02-21T05:43:20;95321.38;;;8.10;56.58
5380;BME280;2713;42.680;23.310;2023-02-21T05:45:47;95332.66;;;7.93;57.02
5380;BME280;2713;42.680;23.310;2023-02-21T05:48:14;95327.13;;;7.88;57.35
5380;BME280;2713;42.680;23.310;2023-02-21T05:50:42;95337.56;;;7.36;59.20
5380;BME280;2713;42.680;23.310;2023-02-21T05:53:09;95336.19;;;7.24;59.80
5380;BME280;2713;42.680;23.310;2023-02-21T05:55:36;95340.31;;;7.69;58.07
5380;BME280;2713;42.680;23.310;2023-02-21T05:58:03;95344.09;;;7.48;58.57
5380;BME280;2713;42.680;23.310;2023-02-21T06:00:30;95345.75;;;7.57;58.18
5380;BME280;2713;42.680;23.310;2023-02-21T06:02:57;95350.19;;;7.39;58.69
5380;BME280;2713;42.680;23.310;2023-02-21T06:05:24;95364.41;;;7.43;59.26
5380;BME280;2713;42.680;23.310;2023-02-21T06:07:52;95361.09;;;7.85;57.82
5380;BME280;2713;42.680;23.310;2023-02-21T06:10:19;95360.69;;;8.05;57.38
5380;BME280;2713;42.680;23.310;2023-02-21T06:12:46;95358.25;;;8.38;56.45
5380;BME280;2713;42.680;23.310;2023-02-21T06:15:13;95337.84;;;8.43;55.50
5380;BME280;2713;42.680;23.310;2023-02-21T06:17:40;95356.34;;;8.72;55.61
5380;BME280;2713;42.680;23.310;2023-02-21T06:20:10;95355.56;;;8.96;54.21
5380;BME280;2713;42.680;23.310;2023-02-21T06:22:38;95353.47;;;9.07;53.81
5380;BME280;2713;42.680;23.310;2023-02-21T06:25:07;95349.38;;;9.05;54.19
5380;BME280;2713;42.680;23.310;2023-02-21T06:27:34;95353.47;;;9.07;53.95
5380;BME280;2713;42.680;23.310;2023-02-21T06:30:01;95346.16;;;9.19;53.40
5380;BME280;2713;42.680;23.310;2023-02-21T06:32:28;95362.81;;;9.33;53.37
5380;BME280;2713;42.680;23.310;2023-02-21T06:34:55;95360.38;;;9.39;52.69
5380;BME280;2713;42.680;23.310;2023-02-21T06:37:22;95364.91;;;9.53;52.37
5380;BME280;2713;42.680;23.310;2023-02-21T06:39:49;95361.28;;;9.71;52.05
5380;BME280;2713;42.680;23.310;2023-02-21T06:42:17;95355.88;;;9.88;51.23
5380;BME280;2713;42.680;23.310;2023-02-21T06:44:45;95359.94;;;9.91;50.81
5380;BME280;2713;42.680;23.310;2023-02-21T06:47:12;95365.94;;;9.91;51.25
5380;BME280;2713;42.680;23.310;2023-02-21T06:49:39;95358.00;;;9.85;50.65
5380;BME280;2713;42.680;23.310;2023-02-21T06:52:06;95361.91;;;9.89;51.17
5380;BME280;2713;42.680;23.310;2023-02-21T06:54:33;95352.63;;;9.94;50.75
5380;BME280;2713;42.680;23.310;2023-02-21T06:57:00;95356.66;;;9.97;50.28
5380;BME280;2713;42.680;23.310;2023-02-21T06:59:29;95360.91;;;9.90;50.79
5380;BME280;2713;42.680;23.310;2023-02-21T07:01:56;95363.13;;;10.09;50.37
5380;BME280;2713;42.680;23.310;2023-02-21T07:04:23;95342.97;;;10.19;50.17
5380;BME280;2713;42.680;23.310;2023-02-21T07:06:50;95348.50;;;10.16;50.43
5380;BME280;2713;42.680;23.310;2023-02-21T07:09:17;95358.00;;;10.32;49.72
5380;BME280;2713;42.680;23.310;2023-02-21T07:11:44;95358.19;;;10.30;50.20
5380;BME280;2713;42.680;23.310;2023-02-21T07:14:12;95353.25;;;10.43;50.28
5380;BME280;2713;42.680;23.310;2023-02-21T07:16:41;95357.50;;;10.36;49.88
5380;BME280;2713;42.680;23.310;2023-02-21T07:19:08;95356.69;;;10.36;50.28
5380;BME280;2713;42.680;23.310;2023-02-21T07:21:35;95358.56;;;10.50;49.74
5380;BME280;2713;42.680;23.310;2023-02-21T07:24:01;95361.00;;;10.74;49.52
5380;BME280;2713;42.680;23.310;2023-02-21T07:26:28;95354.47;;;11.01;48.54
5380;BME280;2713;42.680;23.310;2023-02-21T07:28:55;95346.72;;;11.15;48.33
5380;BME280;2713;42.680;23.310;2023-02-21T07:31:22;95349.03;;;11.48;47.85
5380;BME280;2713;42.680;23.310;2023-02-21T07:33:50;95337.41;;;11.88;46.93
5380;BME280;2713;42.680;23.310;2023-02-21T07:36:17;95338.56;;;12.00;46.31
5380;BME280;2713;42.680;23.310;2023-02-21T07:38:44;95332.09;;;12.25;46.24
5380;BME280;2713;42.680;23.310;2023-02-21T07:41:13;95337.59;;;12.51;47.18
5380;BME280;2713;42.680;23.310;2023-02-21T07:43:40;95296.97;;;12.42;45.12
5380;BME280;2713;42.680;23.310;2023-02-21T07:46:09;95325.69;;;12.63;45.10
5380;BME280;2713;42.680;23.310;2023-02-21T07:48:37;95331.41;;;12.74;45.07
5380;BME280;2713;42.680;23.310;2023-02-21T07:51:07;95316.47;;;12.46;45.08
5380;BME280;2713;42.680;23.310;2023-02-21T07:53:35;95317.03;;;12.42;45.75
5380;BME280;2713;42.680;23.310;2023-02-21T07:56:03;95320.19;;;12.37;45.20
5380;BME280;2713;42.680;23.310;2023-02-21T07:58:30;95318.78;;;12.20;45.44
5380;BME280;2713;42.680;23.310;2023-02-21T08:01:02;95309.00;;;11.63;46.47
5380;BME280;2713;42.680;23.310;2023-02-21T08:03:29;95318.75;;;11.32;47.81
5380;BME280;2713;42.680;23.310;2023-02-21T08:05:56;95306.47;;;11.41;47.80
5380;BME280;2713;42.680;23.310;2023-02-21T08:08:25;95311.25;;;11.00;48.69
5380;BME280;2713;42.680;23.310;2023-02-21T08:10:52;95305.94;;;10.93;48.93
5380;BME280;2713;42.680;23.310;2023-02-21T08:13:18;95303.16;;;10.72;49.57
5380;BME280;2713;42.680;23.310;2023-02-21T08:15:45;95298.78;;;10.73;49.51
5380;BME280;2713;42.680;23.310;2023-02-21T08:18:14;95310.72;;;11.04;49.04
5380;BME280;2713;42.680;23.310;2023-02-21T08:20:43;95313.91;;;11.29;48.50
5380;BME280;2713;42.680;23.310;2023-02-21T08:23:09;95304.53;;;11.05;48.73
5380;BME280;2713;42.680;23.310;2023-02-21T08:25:38;95309.53;;;11.30;48.42
5380;BME280;2713;42.680;23.310;2023-02-21T08:28:05;95300.66;;;11.53;48.00
5380;BME280;2713;42.680;23.310;2023-02-21T08:30:31;95307.88;;;11.81;47.57
5380;BME280;2713;42.680;23.310;2023-02-21T08:32:58;95301.47;;;11.98;47.06
5380;BME280;2713;42.680;23.310;2023-02-21T08:35:25;95299.88;;;11.82;47.51
5380;BME280;2713;42.680;23.310;2023-02-21T08:37:52;95294.91;;;11.43;47.75
5380;BME280;2713;42.680;23.310;2023-02-21T08:40:21;95295.72;;;11.58;47.85
5380;BME280;2713;42.680;23.310;2023-02-21T08:42:52;95303.63;;;11.94;47.17
5380;BME280;2713;42.680;23.310;2023-02-21T08:45:21;95300.72;;;12.18;46.39
5380;BME280;2713;42.680;23.310;2023-02-21T08:47:49;95284.31;;;12.03;46.89
5380;BME280;2713;42.680;23.310;2023-02-21T08:50:16;95300.81;;;12.25;46.93
5380;BME280;2713;42.680;23.310;2023-02-21T08:52:44;95285.44;;;12.51;45.94
5380;BME280;2713;42.680;23.310;2023-02-21T08:55:11;95292.91;;;12.76;45.43
5380;BME280;2713;42.680;23.310;2023-02-21T08:57:38;95289.63;;;12.67;45.40
5380;BME280;2713;42.680;23.310;2023-02-21T09:00:08;95284.56;;;12.44;45.56
5380;BME280;2713;42.680;23.310;2023-02-21T09:02:35;95286.63;;;12.49;45.86
5380;BME280;2713;42.680;23.310;2023-02-21T09:05:06;95281.72;;;12.82;45.31
5380;BME280;2713;42.680;23.310;2023-02-21T09:07:33;95287.56;;;12.62;45.51
5380;BME280;2713;42.680;23.310;2023-02-21T09:10:00;95277.63;;;12.94;45.12
5380;BME280;2713;42.680;23.310;2023-02-21T09:12:26;95273.81;;;12.96;44.83
5380;BME280;2713;42.680;23.310;2023-02-21T09:14:53;95279.69;;;13.05;44.78
5380;BME280;2713;42.680;23.310;2023-02-21T09:17:21;95265.25;;;13.30;44.15
5380;BME280;2713;42.680;23.310;2023-02-21T09:19:48;95273.44;;;13.89;43.49
5380;BME280;2713;42.680;23.310;2023-02-21T09:22:15;95266.34;;;14.24;42.05
5380;BME280;2713;42.680;23.310;2023-02-21T09:24:42;95264.41;;;14.52;42.13
5380;BME280;2713;42.680;23.310;2023-02-21T09:27:09;95258.25;;;14.86;41.58
5380;BME280;2713;42.680;23.310;2023-02-21T09:29:36;95251.78;;;15.28;41.12
5380;BME280;2713;42.680;23.310;2023-02-21T09:32:03;95248.94;;;15.49;40.24
5380;BME280;2713;42.680;23.310;2023-02-21T09:34:32;95259.38;;;15.76;40.22
5380;BME280;2713;42.680;23.310;2023-02-21T09:37:03;95256.09;;;15.87;39.08
5380;BME280;2713;42.680;23.310;2023-02-21T09:39:30;95249.94;;;15.68;38.42
5380;BME280;2713;42.680;23.310;2023-02-21T09:41:57;95241.44;;;15.66;38.91
5380;BME280;2713;42.680;23.310;2023-02-21T09:44:26;95227.16;;;15.62;39.35
5380;BME280;2713;42.680;23.310;2023-02-21T09:46:57;95232.56;;;15.73;38.66
5380;BME280;2713;42.680;23.310;2023-02-21T09:49:30;95229.59;;;15.44;39.54
5380;BME280;2713;42.680;23.310;2023-02-21T09:52:01;95232.84;;;15.33;39.61
5380;BME280;2713;42.680;23.310;2023-02-21T09:54:32;95228.41;;;15.27;39.64
5380;BME280;2713;42.680;23.310;2023-02-21T09:57:02;95224.00;;;15.27;39.82
5380;BME280;2713;42.680;23.310;2023-02-21T09:59:29;95219.91;;;15.57;38.98
5380;BME280;2713;42.680;23.310;2023-02-21T10:02:13;95209.41;;;15.70;38.55
5380;BME280;2713;42.680;23.310;2023-02-21T10:04:54;95210.22;;;16.15;38.10
5380;BME280;2713;42.680;23.310;2023-02-21T10:07:34;95205.78;;;16.47;36.71
5380;BME280;2713;42.680;23.310;2023-02-21T10:10:08;95189.09;;;16.73;36.21
5380;BME280;2713;42.680;23.310;2023-02-21T10:12:42;95181.53;;;17.08;35.36
5380;BME280;2713;42.680;23.310;2023-02-21T10:15:22;95152.31;;;16.98;34.61
5380;BME280;2713;42.680;23.310;2023-02-21T10:17:55;95182.00;;;17.41;34.33
5380;BME280;2713;42.680;23.310;2023-02-21T10:20:28;95172.66;;;17.45;34.86
5380;BME280;2713;42.680;23.310;2023-02-21T10:23:01;95170.31;;;17.37;35.08
5380;BME280;2713;42.680;23.310;2023-02-21T10:25:30;95158.91;;;17.43;35.34
5380;BME280;2713;42.680;23.310;2023-02-21T10:27:58;95158.50;;;17.46;34.89
5380;BME280;2713;42.680;23.310;2023-02-21T10:42:46;95133.41;;;18.93;36.65
5380;BME280;2713;42.680;23.310;2023-02-21T10:45:19;95126.31;;;19.16;28.91
5380;BME280;2713;42.680;23.310;2023-02-21T10:47:55;95124.28;;;18.42;27.24
5380;BME280;2713;42.680;23.310;2023-02-21T10:50:41;95123.06;;;18.15;27.64
5380;BME280;2713;42.680;23.310;2023-02-21T10:53:16;95118.56;;;18.04;27.79
5380;BME280;2713;42.680;23.310;2023-02-21T10:56:06;95104.44;;;17.87;27.09
5380;BME280;2713;42.680;23.310;2023-02-21T10:58:35;95101.09;;;17.80;27.82
5380;BME280;2713;42.680;23.310;2023-02-21T11:01:11;95098.38;;;17.86;27.65
5380;BME280;2713;42.680;23.310;2023-02-21T11:03:42;95099.47;;;17.79;27.97
5380;BME280;2713;42.680;23.310;2023-02-21T11:06:21;95094.56;;;17.70;28.85
5380;BME280;2713;42.680;23.310;2023-02-21T11:08:49;95091.56;;;17.67;28.24
5380;BME280;2713;42.680;23.310;2023-02-21T11:11:30;95088.34;;;17.65;28.39
5380;BME280;2713;42.680;23.310;2023-02-21T11:14:18;95061.38;;;17.51;27.79
5380;BME280;2713;42.680;23.310;2023-02-21T11:17:03;95074.34;;;17.83;28.39
5380;BME280;2713;42.680;23.310;2023-02-21T11:19:41;95083.31;;;18.05;27.57
5380;BME280;2713;42.680;23.310;2023-02-21T11:22:08;95074.53;;;17.99;27.55
5380;BME280;2713;42.680;23.310;2023-02-21T11:24:49;95067.94;;;18.20;27.58
5380;BME280;2713;42.680;23.310;2023-02-21T11:27:16;95050.81;;;18.41;27.35
5380;BME280;2713;42.680;23.310;2023-02-21T11:29:48;95051.97;;;18.56;27.10
5380;BME280;2713;42.680;23.310;2023-02-21T11:32:23;95049.25;;;18.63;26.87
5380;BME280;2713;42.680;23.310;2023-02-21T11:35:00;95050.75;;;18.59;26.87
5380;BME280;2713;42.680;23.310;2023-02-21T11:37:27;95054.53;;;18.63;27.26
5380;BME280;2713;42.680;23.310;2023-02-21T11:39:57;95038.47;;;18.53;27.02
5380;BME280;2713;42.680;23.310;2023-02-21T11:42:28;95039.63;;;18.68;27.32
5380;BME280;2713;42.680;23.310;2023-02-21T11:45:12;95030.50;;;18.59;27.24
5380;BME280;2713;42.680;23.310;2023-02-21T11:47:45;95023.03;;;18.80;27.20
5380;BME280;2713;42.680;23.310;2023-02-21T11:50:21;95017.06;;;18.84;27.24
5380;BME280;2713;42.680;23.310;2023-02-21T11:52:55;95026.09;;;19.00;27.18
5380;BME280;2713;42.680;23.310;2023-02-21T11:55:25;95017.94;;;19.01;26.96
5380;BME280;2713;42.680;23.310;2023-02-21T11:58:00;95019.00;;;19.00;27.20
5380;BME280;2713;42.680;23.310;2023-02-21T12:00:39;95008.78;;;19.04;26.89
5380;BME280;2713;42.680;23.310;2023-02-21T12:03:26;95005.97;;;19.22;27.33
5380;BME280;2713;42.680;23.310;2023-02-21T12:05:59;94986.38;;;19.18;26.87
5380;BME280;2713;42.680;23.310;2023-02-21T12:08:40;94986.16;;;19.19;27.26
5380;BME280;2713;42.680;23.310;2023-02-21T12:11:29;94984.84;;;19.05;27.48
5380;BME280;2713;42.680;23.310;2023-02-21T12:14:09;94979.91;;;19.09;27.56
5380;BME280;2713;42.680;23.310;2023-02-21T12:16:47;94978.63;;;19.11;27.11
5380;BME280;2713;42.680;23.310;2023-02-21T12:19:39;94968.22;;;19.05;27.48
5380;BME280;2713;42.680;23.310;2023-02-21T12:22:22;94969.81;;;19.06;28.68
5380;BME280;2713;42.680;23.310;2023-02-21T12:25:02;94958.34;;;19.12;27.26
5380;BME280;2713;42.680;23.310;2023-02-21T12:27:38;94948.09;;;19.27;27.58
5380;BME280;2713;42.680;23.310;2023-02-21T12:30:22;94951.59;;;19.04;27.80
5380;BME280;2713;42.680;23.310;2023-02-21T12:33:01;94951.31;;;18.89;27.86
5380;BME280;2713;42.680;23.310;2023-02-21T12:38:46;94947.72;;;19.07;28.04
5380;BME280;2713;42.680;23.310;2023-02-21T12:41:30;94945.56;;;19.04;27.56
5380;BME280;2713;42.680;23.310;2023-02-21T12:44:07;94946.47;;;18.98;28.02
5380;BME280;2713;42.680;23.310;2023-02-21T12:46:40;94947.41;;;18.92;28.36
5380;BME280;2713;42.680;23.310;2023-02-21T12:49:13;94937.00;;;18.85;28.74
5380;BME280;2713;42.680;23.310;2023-02-21T12:51:45;94934.28;;;18.80;28.92
5380;BME280;2713;42.680;23.310;2023-02-21T12:54:17;94938.50;;;18.93;28.93
5380;BME280;2713;42.680;23.310;2023-02-21T12:56:48;94931.00;;;19.01;28.84
5380;BME280;2713;42.680;23.310;2023-02-21T12:59:21;94939.72;;;19.02;28.68
5380;BME280;2713;42.680;23.310;2023-02-21T13:01:54;94930.44;;;18.99;28.56
5380;BME280;2713;42.680;23.310;2023-02-21T13:04:30;94919.84;;;18.83;28.81
5380;BME280;2713;42.680;23.310;2023-02-21T13:07:02;94939.50;;;18.92;28.76
5380;BME280;2713;42.680;23.310;2023-02-21T13:09:34;94925.41;;;18.98;28.22
5380;BME280;2713;42.680;23.310;2023-02-21T13:12:06;94918.78;;;18.95;28.50
5380;BME280;2713;42.680;23.310;2023-02-21T13:14:39;94918.78;;;18.95;28.62
5380;BME280;2713;42.680;23.310;2023-02-21T13:17:09;94909.78;;;18.80;28.39
5380;BME280;2713;42.680;23.310;2023-02-21T13:19:42;94919.84;;;18.83;28.58
5380;BME280;2713;42.680;23.310;2023-02-21T13:26:01;94911.03;;;18.77;28.72
5380;BME280;2713;42.680;23.310;2023-02-21T13:28:31;94916.97;;;18.84;28.60
5380;BME280;2713;42.680;23.310;2023-02-21T13:31:03;94914.94;;;18.74;28.44
5380;BME280;2713;42.680;23.310;2023-02-21T13:33:36;94910.47;;;18.75;28.31
5380;BME280;2713;42.680;23.310;2023-02-21T13:36:19;94908.31;;;18.72;28.34
5380;BME280;2713;42.680;23.310;2023-02-21T13:38:56;94899.50;;;18.66;28.27
5380;BME280;2713;42.680;23.310;2023-02-21T13:41:27;94897.19;;;18.70;28.12
5380;BME280;2713;42.680;23.310;2023-02-21T13:43:55;94891.94;;;18.70;28.21
5380;BME280;2713;42.680;23.310;2023-02-21T13:46:55;94894.34;;;18.71;27.95
5380;BME280;2713;42.680;23.310;2023-02-21T13:49:39;94887.59;;;18.76;27.76
5380;BME280;2713;42.680;23.310;2023-02-21T13:52:23;94888.13;;;18.78;28.00
5380;BME280;2713;42.680;23.310;2023-02-21T13:58:27;94869.34;;;18.86;28.06
5380;BME280;2713;42.680;23.310;2023-02-21T14:00:56;94875.00;;;18.94;27.83
5380;BME280;2713;42.680;23.310;2023-02-21T14:03:31;94870.88;;;18.98;27.97
5380;BME280;2713;42.680;23.310;2023-02-21T14:06:27;94874.00;;;18.95;28.26
5380;BME280;2713;42.680;23.310;2023-02-21T14:08:57;94872.97;;;18.96;28.38
5380;BME280;2713;42.680;23.310;2023-02-21T14:11:28;94873.78;;;18.97;28.03
5380;BME280;2713;42.680;23.310;2023-02-21T14:13:58;94878.94;;;18.92;28.02